• Join FlightAware (Why Join?)
  • Login
  • US Flag 
10:44AM EDT


 

Airport Tracker/Info


-or-


 

Live Flight TrackerFlight Track Log ✈ N70AG ✈ 25-Jun-2013 ✈ KSCK - KSAN

Flight Track Log - Related Links

Times and Time Zones

All times are in EDT time to prevent confusion due to time zone crossing. See the N70AG flight status page for this flight to view local times or setup timezone preferences in your user account.

Time Position Orientation Groundspeed Altitude Reporting Facility
EDT Latitude Longitude Course Direction KTS MPH feet Rate Location/Type
05:53PM 37.8833 -121.3000 162° South 212 244 3,500  Level Northern Cal TRACON
05:54PM 37.8000 -121.2833 171° South 267 307 7,000 3,000 Climbing Northern Cal TRACON
05:55PM 37.7333 -121.2333 149° Southeast 279 321 9,500 2,280 Climbing Northern Cal TRACON
05:56PM 37.6667 -121.1833 149° Southeast 328 377 11,600 2,220 Climbing Northern Cal TRACON
05:58PM 37.5289 -121.1067 156° South 368 423 15,400 2,400 Climbing Oakland Center
05:59PM 37.3121 -120.8782 162° South  Level FlightAware Approximate
05:59PM 37.4322 -121.0458 153° Southeast 386 444 17,900  Level Oakland Center
06:00PM 37.3308 -120.9842 154° Southeast 402 463 20,000 2,340 Climbing Oakland Center
06:01PM 37.2036 -120.9056 154° Southeast 424 488 22,800 1,980 Climbing Oakland Center
06:02PM 37.0956 -120.8408 154° Southeast 430 495 24,100 1,260 Climbing Oakland Center
06:03PM 36.9847 -120.7728 154° Southeast 444 511 25,400 1,020 Climbing Oakland Center
06:04PM 36.8714 -120.7036 154° Southeast 454 522 26,200 780 Climbing Oakland Center
06:05PM 36.7578 -120.6372 155° Southeast 457 526 27,000 1,380 Climbing Oakland Center
06:06PM 36.6417 -120.5694 155° Southeast 459 528 29,100 2,100 Climbing Oakland Center
06:07PM 36.5281 -120.4981 153° Southeast 458 527 31,300 2,160 Climbing Oakland Center
06:08PM 36.4139 -120.4325 155° Southeast 453 521 33,500 2,040 Climbing Oakland Center
06:09PM 36.3003 -120.3664 155° Southeast 451 519 35,500 1,680 Climbing Oakland Center
06:10PM 36.1642 -120.2817 153° Southeast 452 520 37,000 720 Climbing Oakland Center
06:11PM 36.0444 -120.2119 155° Southeast 476 548 37,000  Level Oakland Center
06:12PM 35.9169 -120.1356 154° Southeast 502 578 37,000  Level Oakland Center
06:13PM 35.7900 -120.0617 155° Southeast 503 579 37,000  Level Oakland Center
06:14PM 35.6639 -119.9869 154° Southeast 500 575 37,000  Level Oakland Center
06:15PM 35.5233 -119.8703 146° Southeast 505 581 37,000  Level Los Angeles Center
06:17PM 35.2975 -119.6592 143° Southeast 505 581 37,000  Level Los Angeles Center
06:18PM 35.1844 -119.5558 143° Southeast 506 582 37,000  Level Los Angeles Center
06:19PM 35.0717 -119.4517 143° Southeast 507 583 37,000  Level Los Angeles Center
06:21PM 34.9589 -119.3489 143° Southeast 505 581 37,000  Level Los Angeles Center
06:22PM 34.8458 -119.2450 143° Southeast 507 583 37,000  Level Los Angeles Center
06:23PM 34.7103 -119.1217 143° Southeast 507 583 37,000  Level Los Angeles Center
06:24PM 34.6092 -119.0361 145° Southeast 508 585 37,000  Level Los Angeles Center
06:25PM 34.4736 -118.9122 143° Southeast 509 586 37,000  Level Los Angeles Center
06:26PM 34.3603 -118.8111 144° Southeast 506 582 37,000  Level Los Angeles Center
06:27PM 34.2478 -118.7128 144° Southeast 501 577 37,000 -240 Level Los Angeles Center
06:28PM 34.1361 -118.6142 144° Southeast 498 573 36,600 -1,080 Descending Los Angeles Center
06:29PM 34.0297 -118.5169 143° Southeast 485 558 34,800 -1,800 Descending Los Angeles Center
06:30PM 33.9228 -118.4172 142° Southeast 485 558 32,900 -2,040 Descending Los Angeles Center
06:31PM 33.8186 -118.2906 135° Southeast 512 589 30,700 -2,100 Descending Los Angeles Center
06:32PM 33.7211 -118.1600 132° Southeast 515 593 28,600 -2,040 Descending Los Angeles Center
06:33PM 33.6283 -118.0419 133° Southeast 487 560 26,600 -2,280 Descending Los Angeles Center
06:34PM 33.5211 -117.9075 134° Southeast 464 534 24,000 -2,340 Descending Los Angeles Center
06:35PM 33.4350 -117.7994 134° Southeast 450 518 21,800 -2,100 Descending Los Angeles Center
06:36PM 33.3508 -117.6925 133° Southeast 443 510 19,700 -2,040 Descending Los Angeles Center
06:37PM 33.2700 -117.5917 134° Southeast 424 488 17,700 -1,980 Descending Los Angeles Center
06:38PM 33.1817 -117.5078 142° Southeast 407 468 15,700 -1,320 Descending Los Angeles Center
06:39PM 33.0894 -117.4311 145° Southeast 403 464 15,000 -1,680 Descending Los Angeles Center
06:40PM 32.9878 -117.3531 147° Southeast 390 449 12,300 -2,280 Descending Los Angeles Center
06:41PM 32.9069 -117.2869 146° Southeast 336 387 10,300 -2,460 Descending Los Angeles Center
06:42PM 32.8333 -117.2167 141° Southeast 299 344 7,100 -2,520 Descending Southern California TRACON
06:43PM 32.8000 -117.1333 115° Southeast 272 313 5,000 -1,200 Descending Southern California TRACON
06:44PM 32.7667 -117.0667 121° Southeast 207 238 4,800 -840 Descending Southern California TRACON
06:45PM 32.7333 -117.0333 140° Southeast 212 244 3,400 -1,500 Descending Southern California TRACON
06:46PM 32.7167 -117.1000 253° West 174 200 1,900 -1,260 Descending Southern California TRACON
06:47PM 32.7167 -117.1333 270° West 130 150 800 -660 Descending Southern California TRACON
06:49PM 32.7364 -117.1939 291° West 136 157 400 -360 Descending Los Angeles Center
06:51PM 32.7333 -117.1833 235° Southwest  Level FlightAware Approximate